sensor_id;sensor_type;location;lat;lon;timestamp;pressure;altitude;pressure_sealevel;temperature;humidity
7832;BME280;3961;42.058;25.586;2023-03-23T00:00:55;63415.84;;;10.67;100.00
7832;BME280;3961;42.058;25.586;2023-03-23T00:03:22;63425.31;;;10.77;100.00
7832;BME280;3961;42.058;25.586;2023-03-23T00:05:50;63412.38;;;10.64;100.00
7832;BME280;3961;42.058;25.586;2023-03-23T00:08:17;63353.47;;;10.12;100.00
7832;BME280;3961;42.058;25.586;2023-03-23T00:10:43;63407.53;;;10.57;100.00
7832;BME280;3961;42.058;25.586;2023-03-23T00:13:08;63397.38;;;10.51;100.00
7832;BME280;3961;42.058;25.586;2023-03-23T00:15:36;63411.81;;;10.63;100.00
7832;BME280;3961;42.058;25.586;2023-03-23T00:18:06;63401.66;;;10.57;100.00
7832;BME280;3961;42.058;25.586;2023-03-23T00:20:32;63420.13;;;10.73;100.00
7832;BME280;3961;42.058;25.586;2023-03-23T00:23:06;63422.19;;;10.72;100.00
7832;BME280;3961;42.058;25.586;2023-03-23T00:25:32;63411.81;;;10.63;100.00
7832;BME280;3961;42.058;25.586;2023-03-23T00:27:58;63425.31;;;10.77;100.00
7832;BME280;3961;42.058;25.586;2023-03-23T00:30:24;63438.72;;;10.85;100.00
7832;BME280;3961;42.058;25.586;2023-03-23T00:32:49;63403.47;;;10.54;100.00
7832;BME280;3961;42.058;25.586;2023-03-23T00:35:16;63426.94;;;10.72;100.00
7832;BME280;3961;42.058;25.586;2023-03-23T00:37:43;63427.63;;;10.80;100.00
7832;BME280;3961;42.058;25.586;2023-03-23T00:40:09;63429.47;;;10.76;100.00
7832;BME280;3961;42.058;25.586;2023-03-23T00:42:36;63396.31;;;10.45;100.00
7832;BME280;3961;42.058;25.586;2023-03-23T00:45:03;63399.09;;;10.52;100.00
7832;BME280;3961;42.058;25.586;2023-03-23T00:47:32;63388.13;;;10.42;100.00
7832;BME280;3961;42.058;25.586;2023-03-23T00:50:02;63401.41;;;10.54;100.00
7832;BME280;3961;42.058;25.586;2023-03-23T00:52:28;63426.81;;;10.76;100.00
7832;BME280;3961;42.058;25.586;2023-03-23T00:54:53;63409.84;;;10.59;100.00
7832;BME280;3961;42.058;25.586;2023-03-23T00:57:19;63405.56;;;10.53;100.00
7832;BME280;3961;42.058;25.586;2023-03-23T00:59:45;63391.25;;;10.48;100.00
7832;BME280;3961;42.058;25.586;2023-03-23T01:02:11;63389.28;;;10.43;100.00
7832;BME280;3961;42.058;25.586;2023-03-23T01:04:38;63412.97;;;10.64;100.00
7832;BME280;3961;42.058;25.586;2023-03-23T01:07:04;63418.75;;;10.69;100.00
7832;BME280;3961;42.058;25.586;2023-03-23T01:09:30;63429.69;;;10.79;100.00
7832;BME280;3961;42.058;25.586;2023-03-23T01:11:55;63429.13;;;10.78;100.00
7832;BME280;3961;42.058;25.586;2023-03-23T01:14:21;63423.34;;;10.73;100.00
7832;BME280;3961;42.058;25.586;2023-03-23T01:16:47;63431.09;;;10.83;100.00
7832;BME280;3961;42.058;25.586;2023-03-23T01:19:12;63430.63;;;10.77;100.00
7832;BME280;3961;42.058;25.586;2023-03-23T01:21:38;63417.59;;;10.68;100.00
7832;BME280;3961;42.058;25.586;2023-03-23T01:24:05;63403.38;;;10.58;100.00
7832;BME280;3961;42.058;25.586;2023-03-23T01:26:31;63396.78;;;10.50;100.00
7832;BME280;3961;42.058;25.586;2023-03-23T01:28:56;63417.59;;;10.68;100.00
7832;BME280;3961;42.058;25.586;2023-03-23T01:31:24;63438.81;;;10.80;100.00
7832;BME280;3961;42.058;25.586;2023-03-23T01:33:50;63408.34;;;10.60;100.00
7832;BME280;3961;42.058;25.586;2023-03-23T01:36:20;63412.38;;;10.64;100.00
7832;BME280;3961;42.058;25.586;2023-03-23T01:38:48;63387.31;;;10.39;100.00
7832;BME280;3961;42.058;25.586;2023-03-23T01:41:15;63401.75;;;10.52;100.00
7832;BME280;3961;42.058;25.586;2023-03-23T01:44:02;63404.63;;;10.55;100.00
7832;BME280;3961;42.058;25.586;2023-03-23T01:46:31;63409.50;;;10.61;100.00
7832;BME280;3961;42.058;25.586;2023-03-23T01:49:06;63418.75;;;10.69;100.00
7832;BME280;3961;42.058;25.586;2023-03-23T01:51:37;63417.34;;;10.66;100.00
7832;BME280;3961;42.058;25.586;2023-03-23T01:54:06;63421.06;;;10.71;100.00
7832;BME280;3961;42.058;25.586;2023-03-23T01:56:38;63402.31;;;10.53;100.00
7832;BME280;3961;42.058;25.586;2023-03-23T01:59:07;63382.38;;;10.37;100.00
7832;BME280;3961;42.058;25.586;2023-03-23T02:01:34;63365.38;;;10.20;100.00
7832;BME280;3961;42.058;25.586;2023-03-23T02:04:03;63356.34;;;10.15;100.00
7832;BME280;3961;42.058;25.586;2023-03-23T02:06:30;63367.91;;;10.25;100.00
7832;BME280;3961;42.058;25.586;2023-03-23T02:08:55;63354.63;;;10.13;100.00
7832;BME280;3961;42.058;25.586;2023-03-23T02:11:22;63360.66;;;10.21;100.00
7832;BME280;3961;42.058;25.586;2023-03-23T02:13:49;63365.63;;;10.23;100.00
7832;BME280;3961;42.058;25.586;2023-03-23T02:19:31;63354.28;;;10.15;100.00
7832;BME280;3961;42.058;25.586;2023-03-23T02:24:57;63346.19;;;10.08;100.00
7832;BME280;3961;42.058;25.586;2023-03-23T02:27:39;63339.63;;;10.00;100.00
7832;BME280;3961;42.058;25.586;2023-03-23T02:30:17;63333.28;;;9.94;100.00
7832;BME280;3961;42.058;25.586;2023-03-23T02:33:12;63331.88;;;9.91;100.00
7832;BME280;3961;42.058;25.586;2023-03-23T02:35:47;63343.66;;;10.03;100.00
7832;BME280;3961;42.058;25.586;2023-03-23T02:38:22;63343.66;;;10.03;100.00
7832;BME280;3961;42.058;25.586;2023-03-23T02:40:53;63326.69;;;9.86;100.00
7832;BME280;3961;42.058;25.586;2023-03-23T02:43:23;63313.31;;;9.79;100.00
7832;BME280;3961;42.058;25.586;2023-03-23T02:45:51;63330.97;;;9.92;100.00
7832;BME280;3961;42.058;25.586;2023-03-23T02:48:20;63341.47;;;9.97;100.00
7832;BME280;3961;42.058;25.586;2023-03-23T02:50:51;63304.19;;;9.66;100.00
7832;BME280;3961;42.058;25.586;2023-03-23T02:53:21;63323.22;;;9.83;100.00
7832;BME280;3961;42.058;25.586;2023-03-23T02:55:48;63315.72;;;9.76;100.00
7832;BME280;3961;42.058;25.586;2023-03-23T02:58:18;63314.22;;;9.77;100.00
7832;BME280;3961;42.058;25.586;2023-03-23T03:00:44;63307.66;;;9.69;100.00
7832;BME280;3961;42.058;25.586;2023-03-23T03:03:19;63297.16;;;9.65;100.00
7832;BME280;3961;42.058;25.586;2023-03-23T03:06:21;63293.22;;;9.57;100.00
7832;BME280;3961;42.058;25.586;2023-03-23T03:08:55;63308.47;;;9.72;100.00
7832;BME280;3961;42.058;25.586;2023-03-23T03:11:29;63300.38;;;9.65;100.00
7832;BME280;3961;42.058;25.586;2023-03-23T03:14:06;63296.00;;;9.64;100.00
7832;BME280;3961;42.058;25.586;2023-03-23T03:16:44;63291.16;;;9.57;100.00
7832;BME280;3961;42.058;25.586;2023-03-23T03:19:24;63297.50;;;9.63;100.00
7832;BME280;3961;42.058;25.586;2023-03-23T03:21:53;63301.06;;;9.61;100.00
7832;BME280;3961;42.058;25.586;2023-03-23T03:24:22;63291.72;;;9.58;100.00
7832;BME280;3961;42.058;25.586;2023-03-23T03:26:52;63271.56;;;9.40;100.00
7832;BME280;3961;42.058;25.586;2023-03-23T03:29:23;63229.22;;;9.00;100.00
7832;BME280;3961;42.058;25.586;2023-03-23T03:31:51;63273.84;;;9.42;100.00
7832;BME280;3961;42.058;25.586;2023-03-23T03:34:21;63265.78;;;9.35;100.00
7832;BME280;3961;42.058;25.586;2023-03-23T03:36:47;63251.13;;;9.20;100.00
7832;BME280;3961;42.058;25.586;2023-03-23T03:39:16;63236.72;;;9.07;100.00
7832;BME280;3961;42.058;25.586;2023-03-23T03:41:43;63253.44;;;9.22;100.00
7832;BME280;3961;42.058;25.586;2023-03-23T03:44:09;63252.84;;;9.21;100.00
7832;BME280;3961;42.058;25.586;2023-03-23T03:46:35;63283.41;;;9.48;100.00
7832;BME280;3961;42.058;25.586;2023-03-23T03:49:03;63287.69;;;9.54;100.00
7832;BME280;3961;42.058;25.586;2023-03-23T03:51:30;63290.34;;;9.54;100.00
7832;BME280;3961;42.058;25.586;2023-03-23T03:53:56;63295.78;;;9.61;100.00
7832;BME280;3961;42.058;25.586;2023-03-23T03:56:23;63283.16;;;9.46;100.00
7832;BME280;3961;42.058;25.586;2023-03-23T03:58:49;63298.66;;;9.64;100.00
7832;BME280;3961;42.058;25.586;2023-03-23T04:01:16;63297.50;;;9.63;100.00
7832;BME280;3961;42.058;25.586;2023-03-23T04:03:43;63288.84;;;9.55;100.00
7832;BME280;3961;42.058;25.586;2023-03-23T04:06:11;63280.75;;;9.48;100.00
7832;BME280;3961;42.058;25.586;2023-03-23T04:08:39;63287.69;;;9.54;100.00
7832;BME280;3961;42.058;25.586;2023-03-23T04:11:10;63282.50;;;9.50;100.00
7832;BME280;3961;42.058;25.586;2023-03-23T04:13:36;63293.47;;;9.59;100.00
7832;BME280;3961;42.058;25.586;2023-03-23T04:16:02;63309.38;;;9.71;100.00
7832;BME280;3961;42.058;25.586;2023-03-23T04:18:28;63293.13;;;9.61;100.00
7832;BME280;3961;42.058;25.586;2023-03-23T04:20:54;63299.56;;;9.62;100.00
7832;BME280;3961;42.058;25.586;2023-03-23T04:23:25;63312.28;;;9.73;100.00
7832;BME280;3961;42.058;25.586;2023-03-23T04:25:52;63333.63;;;9.92;100.00
7832;BME280;3961;42.058;25.586;2023-03-23T04:28:22;63325.19;;;9.87;100.00
7832;BME280;3961;42.058;25.586;2023-03-23T04:30:50;63320.56;;;9.83;100.00
7832;BME280;3961;42.058;25.586;2023-03-23T04:33:18;63321.50;;;9.82;100.00
7832;BME280;3961;42.058;25.586;2023-03-23T04:35:45;63326.34;;;9.88;100.00
7832;BME280;3961;42.058;25.586;2023-03-23T04:38:15;63342.75;;;10.05;100.00
7832;BME280;3961;42.058;25.586;2023-03-23T04:40:42;63330.28;;;9.96;100.00
7832;BME280;3961;42.058;25.586;2023-03-23T04:43:09;63315.72;;;9.76;100.00
7832;BME280;3961;42.058;25.586;2023-03-23T04:45:37;63315.03;;;9.81;100.00
7832;BME280;3961;42.058;25.586;2023-03-23T04:48:04;63320.22;;;9.85;100.00
7832;BME280;3961;42.058;25.586;2023-03-23T04:50:31;63311.13;;;9.72;100.00
7832;BME280;3961;42.058;25.586;2023-03-23T04:53:02;63300.97;;;9.66;100.00
7832;BME280;3961;42.058;25.586;2023-03-23T04:55:31;63319.41;;;9.82;100.00
7832;BME280;3961;42.058;25.586;2023-03-23T04:57:57;63308.22;;;9.70;100.00
7832;BME280;3961;42.058;25.586;2023-03-23T05:00:27;63314.78;;;9.78;100.00
7832;BME280;3961;42.058;25.586;2023-03-23T05:02:52;63317.22;;;9.75;100.00
7832;BME280;3961;42.058;25.586;2023-03-23T05:05:21;63330.03;;;9.94;100.00
7832;BME280;3961;42.058;25.586;2023-03-23T05:07:47;63305.59;;;9.70;100.00
7832;BME280;3961;42.058;25.586;2023-03-23T05:10:14;63322.06;;;9.82;100.00
7832;BME280;3961;42.058;25.586;2023-03-23T05:12:41;63330.97;;;9.92;100.00
7832;BME280;3961;42.058;25.586;2023-03-23T05:15:07;63338.47;;;9.99;100.00
7832;BME280;3961;42.058;25.586;2023-03-23T05:17:33;63343.53;;;10.08;100.00
7832;BME280;3961;42.058;25.586;2023-03-23T05:20:00;63345.97;;;10.05;100.00
7832;BME280;3961;42.058;25.586;2023-03-23T05:22:27;63334.19;;;9.93;100.00
7832;BME280;3961;42.058;25.586;2023-03-23T05:24:53;63305.09;;;9.65;100.00
7832;BME280;3961;42.058;25.586;2023-03-23T05:27:18;63333.03;;;9.92;100.00
7832;BME280;3961;42.058;25.586;2023-03-23T05:29:46;63334.75;;;9.93;100.00
7832;BME280;3961;42.058;25.586;2023-03-23T05:32:16;63345.16;;;10.02;100.00
7832;BME280;3961;42.058;25.586;2023-03-23T05:34:42;63349.06;;;10.10;100.00
7832;BME280;3961;42.058;25.586;2023-03-23T05:37:09;63374.28;;;10.30;100.00
7832;BME280;3961;42.058;25.586;2023-03-23T05:39:35;63382.38;;;10.37;100.00
7832;BME280;3961;42.058;25.586;2023-03-23T05:42:01;63355.19;;;10.14;100.00
7832;BME280;3961;42.058;25.586;2023-03-23T05:44:26;63359.81;;;10.18;100.00
7832;BME280;3961;42.058;25.586;2023-03-23T05:46:52;63346.78;;;10.08;100.00
7832;BME280;3961;42.058;25.586;2023-03-23T05:49:18;63382.03;;;10.39;100.00
7832;BME280;3961;42.058;25.586;2023-03-23T05:51:44;63386.16;;;10.38;100.00
7832;BME280;3961;42.058;25.586;2023-03-23T05:54:15;63379.47;;;10.35;100.00
7832;BME280;3961;42.058;25.586;2023-03-23T05:56:41;63384.09;;;10.39;100.00
7832;BME280;3961;42.058;25.586;2023-03-23T05:59:07;63364.78;;;10.20;100.00
7832;BME280;3961;42.058;25.586;2023-03-23T06:01:33;63380.63;;;10.36;100.00
7832;BME280;3961;42.058;25.586;2023-03-23T06:03:59;63390.44;;;10.44;100.00
7832;BME280;3961;42.058;25.586;2023-03-23T06:06:25;63389.28;;;10.43;100.00
7832;BME280;3961;42.058;25.586;2023-03-23T06:08:51;63380.88;;;10.38;100.00
7832;BME280;3961;42.058;25.586;2023-03-23T06:11:17;63397.13;;;10.48;100.00
7832;BME280;3961;42.058;25.586;2023-03-23T06:13:44;63404.53;;;10.59;100.00
7832;BME280;3961;42.058;25.586;2023-03-23T06:16:10;63399.34;;;10.55;100.00
7832;BME280;3961;42.058;25.586;2023-03-23T06:18:35;63401.06;;;10.56;100.00
7832;BME280;3961;42.058;25.586;2023-03-23T06:21:05;63429.69;;;10.79;100.00
7832;BME280;3961;42.058;25.586;2023-03-23T06:23:31;63426.81;;;10.76;100.00
7832;BME280;3961;42.058;25.586;2023-03-23T06:25:59;63452.00;;;10.96;100.00
7832;BME280;3961;42.058;25.586;2023-03-23T06:28:26;63464.13;;;11.07;100.00
7832;BME280;3961;42.058;25.586;2023-03-23T06:30:52;63463.56;;;11.06;100.00
7832;BME280;3961;42.058;25.586;2023-03-23T06:33:18;63449.13;;;10.94;100.00
7832;BME280;3961;42.058;25.586;2023-03-23T06:35:43;63473.97;;;11.16;100.00
7832;BME280;3961;42.058;25.586;2023-03-23T06:38:09;63477.09;;;11.21;100.00
7832;BME280;3961;42.058;25.586;2023-03-23T06:40:35;63481.94;;;11.27;100.00
7832;BME280;3961;42.058;25.586;2023-03-23T06:43:02;63491.53;;;11.33;100.00
7832;BME280;3961;42.058;25.586;2023-03-23T06:45:29;63464.13;;;11.07;100.00
7832;BME280;3961;42.058;25.586;2023-03-23T06:47:54;63485.75;;;11.28;100.00
7832;BME280;3961;42.058;25.586;2023-03-23T06:50:20;63471.06;;;11.13;100.00
7832;BME280;3961;42.058;25.586;2023-03-23T06:52:50;63500.78;;;11.41;100.00
7832;BME280;3961;42.058;25.586;2023-03-23T06:55:16;63510.94;;;11.48;100.00
7832;BME280;3961;42.058;25.586;2023-03-23T06:57:43;63506.22;;;11.49;100.00
7832;BME280;3961;42.058;25.586;2023-03-23T07:00:11;63535.13;;;11.74;100.00
7832;BME280;3961;42.058;25.586;2023-03-23T07:02:42;63540.34;;;11.78;100.00
7832;BME280;3961;42.058;25.586;2023-03-23T07:05:11;63523.91;;;11.62;100.00
7832;BME280;3961;42.058;25.586;2023-03-23T07:07:37;63549.38;;;11.84;100.00
7832;BME280;3961;42.058;25.586;2023-03-23T07:10:04;63549.38;;;11.84;100.00
7832;BME280;3961;42.058;25.586;2023-03-23T07:12:30;63548.44;;;11.86;100.00
7832;BME280;3961;42.058;25.586;2023-03-23T07:14:56;63560.38;;;11.94;100.00
7832;BME280;3961;42.058;25.586;2023-03-23T07:17:22;63529.69;;;11.67;100.00
7832;BME280;3961;42.058;25.586;2023-03-23T07:19:48;63515.22;;;11.54;100.00
7832;BME280;3961;42.058;25.586;2023-03-23T07:22:14;63530.28;;;11.67;100.00
7832;BME280;3961;42.058;25.586;2023-03-23T07:24:39;63530.28;;;11.67;100.00
7832;BME280;3961;42.058;25.586;2023-03-23T07:27:05;63539.28;;;11.73;100.00
7832;BME280;3961;42.058;25.586;2023-03-23T07:29:31;63550.63;;;11.81;100.00
7832;BME280;3961;42.058;25.586;2023-03-23T07:32:00;63520.53;;;11.54;100.00
7832;BME280;3961;42.058;25.586;2023-03-23T07:34:26;63484.72;;;11.23;100.00
7832;BME280;3961;42.058;25.586;2023-03-23T07:36:52;63480.66;;;11.19;100.00
7832;BME280;3961;42.058;25.586;2023-03-23T07:39:17;63469.66;;;11.09;100.00
7832;BME280;3961;42.058;25.586;2023-03-23T07:41:43;63479.97;;;11.23;100.00
7832;BME280;3961;42.058;25.586;2023-03-23T07:44:08;63464.47;;;11.05;100.00
7832;BME280;3961;42.058;25.586;2023-03-23T07:46:34;63488.06;;;11.30;100.00
7832;BME280;3961;42.058;25.586;2023-03-23T07:49:00;63422.19;;;10.72;100.00
7832;BME280;3961;42.058;25.586;2023-03-23T07:51:30;63486.34;;;11.29;100.00
7832;BME280;3961;42.058;25.586;2023-03-23T07:53:55;63488.41;;;11.28;100.00
7832;BME280;3961;42.058;25.586;2023-03-23T07:56:22;63499.84;;;11.43;100.00
7832;BME280;3961;42.058;25.586;2023-03-23T07:58:48;63537.78;;;11.74;100.00
7832;BME280;3961;42.058;25.586;2023-03-23T08:01:15;63518.13;;;11.57;100.00
7832;BME280;3961;42.058;25.586;2023-03-23T08:03:41;63504.72;;;11.50;100.00
7832;BME280;3961;42.058;25.586;2023-03-23T08:06:08;63582.91;;;12.14;100.00
7832;BME280;3961;42.058;25.586;2023-03-23T08:08:34;63750.03;;;13.58;100.00
7832;BME280;3961;42.058;25.586;2023-03-23T08:11:00;63912.41;;;15.00;100.00
7832;BME280;3961;42.058;25.586;2023-03-23T08:13:25;64037.88;;;16.09;100.00
7832;BME280;3961;42.058;25.586;2023-03-23T08:15:50;63982.47;;;15.59;100.00
7832;BME280;3961;42.058;25.586;2023-03-23T08:18:17;63895.84;;;14.88;100.00
7832;BME280;3961;42.058;25.586;2023-03-23T08:20:43;63792.22;;;13.99;100.00
7832;BME280;3961;42.058;25.586;2023-03-23T08:23:10;63749.56;;;13.53;100.00
7832;BME280;3961;42.058;25.586;2023-03-23T08:25:37;63732.66;;;13.42;100.00
7832;BME280;3961;42.058;25.586;2023-03-23T08:28:03;63710.28;;;13.25;100.00
7832;BME280;3961;42.058;25.586;2023-03-23T08:30:29;63726.50;;;13.39;100.00
7832;BME280;3961;42.058;25.586;2023-03-23T08:32:59;63683.97;;;13.00;100.00
7832;BME280;3961;42.058;25.586;2023-03-23T08:35:26;63704.16;;;13.22;100.00
7832;BME280;3961;42.058;25.586;2023-03-23T08:37:53;63698.34;;;13.17;100.00
7832;BME280;3961;42.058;25.586;2023-03-23T08:40:22;63699.53;;;13.18;100.00
7832;BME280;3961;42.058;25.586;2023-03-23T08:42:49;63710.88;;;13.26;100.00
7832;BME280;3961;42.058;25.586;2023-03-23T08:45:21;63708.91;;;13.22;100.00
7832;BME280;3961;42.058;25.586;2023-03-23T08:47:48;63766.25;;;13.72;100.00
7832;BME280;3961;42.058;25.586;2023-03-23T08:50:20;63791.78;;;13.94;100.00
7832;BME280;3961;42.058;25.586;2023-03-23T08:52:46;63781.56;;;13.88;100.00
7832;BME280;3961;42.058;25.586;2023-03-23T08:55:12;63830.81;;;14.31;100.00
7832;BME280;3961;42.058;25.586;2023-03-23T08:57:38;63865.66;;;14.61;100.00
7832;BME280;3961;42.058;25.586;2023-03-23T09:00:08;63876.44;;;14.68;100.00
7832;BME280;3961;42.058;25.586;2023-03-23T09:02:48;63901.75;;;14.88;100.00
7832;BME280;3961;42.058;25.586;2023-03-23T09:05:15;63913.22;;;15.03;100.00
7832;BME280;3961;42.058;25.586;2023-03-23T09:07:44;63909.16;;;14.99;100.00
7832;BME280;3961;42.058;25.586;2023-03-23T09:10:10;63869.84;;;14.60;100.00
7832;BME280;3961;42.058;25.586;2023-03-23T09:12:36;63885.72;;;14.76;100.00
7832;BME280;3961;42.058;25.586;2023-03-23T09:15:04;63880.16;;;14.74;100.00
7832;BME280;3961;42.058;25.586;2023-03-23T09:17:38;63825.41;;;14.24;100.00
7832;BME280;3961;42.058;25.586;2023-03-23T09:20:05;63886.53;;;14.79;100.00
7832;BME280;3961;42.058;25.586;2023-03-23T09:22:40;63881.09;;;14.72;100.00
7832;BME280;3961;42.058;25.586;2023-03-23T09:25:08;63881.31;;;14.75;100.00
7832;BME280;3961;42.058;25.586;2023-03-23T09:27:35;63841.63;;;14.38;100.00
7832;BME280;3961;42.058;25.586;2023-03-23T09:30:04;63864.50;;;14.60;100.00
7832;BME280;3961;42.058;25.586;2023-03-23T09:32:35;63914.97;;;15.04;100.00
7832;BME280;3961;42.058;25.586;2023-03-23T09:35:01;63925.19;;;15.11;100.00
7832;BME280;3961;42.058;25.586;2023-03-23T09:37:28;63890.16;;;14.78;100.00
7832;BME280;3961;42.058;25.586;2023-03-23T09:39:55;63895.59;;;14.85;100.00
7832;BME280;3961;42.058;25.586;2023-03-23T09:45:12;64012.31;;;15.87;100.00
7832;BME280;3961;42.058;25.586;2023-03-23T09:47:59;64021.59;;;15.95;100.00
7832;BME280;3961;42.058;25.586;2023-03-23T09:50:30;64057.28;;;16.29;100.00
7832;BME280;3961;42.058;25.586;2023-03-23T09:53:12;64102.75;;;16.64;100.00
7832;BME280;3961;42.058;25.586;2023-03-23T09:55:39;64103.81;;;16.69;100.00
7832;BME280;3961;42.058;25.586;2023-03-23T09:58:29;64073.34;;;16.40;100.00
7832;BME280;3961;42.058;25.586;2023-03-23T10:03:32;63990.47;;;15.70;100.00
7832;BME280;3961;42.058;25.586;2023-03-23T10:06:01;63957.69;;;15.39;100.00
7832;BME280;3961;42.058;25.586;2023-03-23T10:08:30;64001.75;;;15.83;100.00
7832;BME280;3961;42.058;25.586;2023-03-23T10:11:10;63994.78;;;15.76;100.00
7832;BME280;3961;42.058;25.586;2023-03-23T10:16:11;63947.25;;;15.30;100.00
7832;BME280;3961;42.058;25.586;2023-03-23T10:19:07;63925.53;;;15.09;100.00
7832;BME280;3961;42.058;25.586;2023-03-23T10:21:41;63901.41;;;14.90;100.00
7832;BME280;3961;42.058;25.586;2023-03-23T10:24:10;63826.78;;;14.27;100.00
7832;BME280;3961;42.058;25.586;2023-03-23T10:29:46;63889.09;;;14.84;100.00
7832;BME280;3961;42.058;25.586;2023-03-23T10:32:13;63933.91;;;15.19;100.00
7832;BME280;3961;42.058;25.586;2023-03-23T10:34:47;64042.53;;;16.13;100.00
7832;BME280;3961;42.058;25.586;2023-03-23T10:37:27;64004.19;;;15.80;100.00
7832;BME280;3961;42.058;25.586;2023-03-23T10:39:55;63999.53;;;15.76;100.00
7832;BME280;3961;42.058;25.586;2023-03-23T10:42:29;63953.06;;;15.35;99.20
7832;BME280;3961;42.058;25.586;2023-03-23T10:44:56;63947.47;;;15.33;99.88
7832;BME280;3961;42.058;25.586;2023-03-23T10:47:24;63922.75;;;15.13;100.00
7832;BME280;3961;42.058;25.586;2023-03-23T10:49:58;63895.25;;;14.87;100.00
7832;BME280;3961;42.058;25.586;2023-03-23T10:52:41;63945.50;;;15.29;100.00
7832;BME280;3961;42.058;25.586;2023-03-23T10:57:47;63998.97;;;15.75;100.00
7832;BME280;3961;42.058;25.586;2023-03-23T11:00:20;63972.72;;;15.57;100.00
7832;BME280;3961;42.058;25.586;2023-03-23T11:03:05;63961.53;;;15.40;100.00
7832;BME280;3961;42.058;25.586;2023-03-23T11:05:44;63973.03;;;15.55;100.00
7832;BME280;3961;42.058;25.586;2023-03-23T11:08:21;64000.69;;;15.77;100.00
7832;BME280;3961;42.058;25.586;2023-03-23T11:10:58;64014.28;;;15.91;99.06
7832;BME280;3961;42.058;25.586;2023-03-23T11:13:32;63997.44;;;15.76;99.29
7832;BME280;3961;42.058;25.586;2023-03-23T11:15:58;63931.00;;;15.16;100.00
7832;BME280;3961;42.058;25.586;2023-03-23T11:18:38;63930.66;;;15.18;100.00
7832;BME280;3961;42.058;25.586;2023-03-23T11:21:05;63938.91;;;15.21;100.00
7832;BME280;3961;42.058;25.586;2023-03-23T11:23:33;63941.09;;;15.27;100.00
7832;BME280;3961;42.058;25.586;2023-03-23T11:26:09;63945.16;;;15.31;100.00
7832;BME280;3961;42.058;25.586;2023-03-23T11:28:37;63907.91;;;14.91;100.00
7832;BME280;3961;42.058;25.586;2023-03-23T11:31:07;63908.25;;;15.01;100.00
7832;BME280;3961;42.058;25.586;2023-03-23T11:33:46;63925.44;;;15.13;100.00
7832;BME280;3961;42.058;25.586;2023-03-23T11:36:12;63936.47;;;15.23;100.00
7832;BME280;3961;42.058;25.586;2023-03-23T11:38:40;63935.88;;;15.23;100.00
7832;BME280;3961;42.058;25.586;2023-03-23T11:41:10;63939.94;;;15.26;100.00
7832;BME280;3961;42.058;25.586;2023-03-23T11:43:40;63922.16;;;15.13;100.00
7832;BME280;3961;42.058;25.586;2023-03-23T11:46:28;64014.06;;;15.89;100.00
7832;BME280;3961;42.058;25.586;2023-03-23T11:49:10;64100.53;;;16.69;100.00
7832;BME280;3961;42.058;25.586;2023-03-23T11:51:51;64224.59;;;17.72;100.00
7832;BME280;3961;42.058;25.586;2023-03-23T11:54:42;64242.06;;;17.88;96.75
7832;BME280;3961;42.058;25.586;2023-03-23T11:57:11;64223.78;;;17.69;95.46
7832;BME280;3961;42.058;25.586;2023-03-23T11:59:39;64136.13;;;16.95;94.61
7832;BME280;3961;42.058;25.586;2023-03-23T12:05:05;64268.38;;;18.18;93.72
7832;BME280;3961;42.058;25.586;2023-03-23T12:07:45;64246.50;;;17.89;94.41
7832;BME280;3961;42.058;25.586;2023-03-23T12:10:27;64304.16;;;18.39;92.55
7832;BME280;3961;42.058;25.586;2023-03-23T12:16:02;64093.09;;;16.58;88.50
7832;BME280;3961;42.058;25.586;2023-03-23T12:21:26;64019.28;;;15.93;88.79
7832;BME280;3961;42.058;25.586;2023-03-23T12:32:49;63891.19;;;14.84;100.00
7832;BME280;3961;42.058;25.586;2023-03-23T12:38:23;63900.47;;;14.92;99.43
7832;BME280;3961;42.058;25.586;2023-03-23T12:41:00;63874.13;;;14.66;100.00
7832;BME280;3961;42.058;25.586;2023-03-23T12:44:02;63855.22;;;14.52;100.00
7832;BME280;3961;42.058;25.586;2023-03-23T12:49:29;63868.91;;;14.62;100.00
7832;BME280;3961;42.058;25.586;2023-03-23T12:52:03;63886.53;;;14.79;100.00
7832;BME280;3961;42.058;25.586;2023-03-23T12:54:42;63853.59;;;14.46;100.00
7832;BME280;3961;42.058;25.586;2023-03-23T12:57:38;63848.84;;;14.47;100.00
7832;BME280;3961;42.058;25.586;2023-03-23T13:02:46;63874.13;;;14.66;99.47
7832;BME280;3961;42.058;25.586;2023-03-23T13:08:11;63872.03;;;14.67;100.00
7832;BME280;3961;42.058;25.586;2023-03-23T13:10:44;63859.53;;;14.58;100.00
7832;BME280;3961;42.058;25.586;2023-03-23T13:13:24;63872.97;;;14.65;100.00
7832;BME280;3961;42.058;25.586;2023-03-23T13:16:05;63885.16;;;14.76;100.00
7832;BME280;3961;42.058;25.586;2023-03-23T13:23:57;63899.66;;;14.89;100.00
7832;BME280;3961;42.058;25.586;2023-03-23T13:26:25;63930.66;;;15.18;99.43
7832;BME280;3961;42.058;25.586;2023-03-23T13:28:59;63975.13;;;15.55;96.90
7832;BME280;3961;42.058;25.586;2023-03-23T13:31:32;63941.66;;;15.28;95.26
7832;BME280;3961;42.058;25.586;2023-03-23T13:36:33;63907.44;;;14.98;96.09
7832;BME280;3961;42.058;25.586;2023-03-23T13:39:01;63925.78;;;15.11;95.30
7832;BME280;3961;42.058;25.586;2023-03-23T13:41:30;63950.97;;;15.36;97.03
7832;BME280;3961;42.058;25.586;2023-03-23T13:44:19;63929.50;;;15.17;95.61
7832;BME280;3961;42.058;25.586;2023-03-23T13:47:07;63906.06;;;14.94;97.21
7832;BME280;3961;42.058;25.586;2023-03-23T13:49:46;63851.50;;;14.47;98.28
7832;BME280;3961;42.058;25.586;2023-03-23T14:03:25;63870.63;;;14.63;99.55
7832;BME280;3961;42.058;25.586;2023-03-23T14:06:02;63837.56;;;14.34;98.82
7832;BME280;3961;42.058;25.586;2023-03-23T14:11:02;63855.91;;;14.48;98.28
7832;BME280;3961;42.058;25.586;2023-03-23T14:14:00;63826.44;;;14.29;99.74
7832;BME280;3961;42.058;25.586;2023-03-23T14:19:13;63868.91;;;14.62;98.96
7832;BME280;3961;42.058;25.586;2023-03-23T14:21:42;63848.59;;;14.44;98.74
7832;BME280;3961;42.058;25.586;2023-03-23T14:24:38;63847.44;;;14.43;98.66
7832;BME280;3961;42.058;25.586;2023-03-23T14:29:32;63836.97;;;14.34;100.00
7832;BME280;3961;42.058;25.586;2023-03-23T14:31:59;63816.94;;;14.19;100.00